sensor_id;sensor_type;location;lat;lon;timestamp;pressure;altitude;pressure_sealevel;temperature;humidity
72162;BME280;66366;51.646;5.842;2023-01-23T00:03:13;103340.0;;;17.0;44.5
72162;BME280;66366;51.646;5.842;2023-01-23T00:08:13;103330.0;;;17.0;44.5
72162;BME280;66366;51.646;5.842;2023-01-23T00:13:13;103330.0;;;17.0;44.5
72162;BME280;66366;51.646;5.842;2023-01-23T00:18:13;103330.0;;;17.0;44.5
72162;BME280;66366;51.646;5.842;2023-01-23T00:23:13;103330.0;;;17.0;44.5
72162;BME280;66366;51.646;5.842;2023-01-23T00:28:13;103340.0;;;17.0;44.5
72162;BME280;66366;51.646;5.842;2023-01-23T00:33:13;103340.0;;;17.0;44.5
72162;BME280;66366;51.646;5.842;2023-01-23T00:38:13;103350.0;;;17.0;44.5
72162;BME280;66366;51.646;5.842;2023-01-23T00:43:13;103350.0;;;17.0;44.5
72162;BME280;66366;51.646;5.842;2023-01-23T00:48:13;103370.0;;;17.0;44.5
72162;BME280;66366;51.646;5.842;2023-01-23T00:53:13;103370.0;;;17.0;44.5
72162;BME280;66366;51.646;5.842;2023-01-23T00:58:13;103370.0;;;17.0;44.5
72162;BME280;66366;51.646;5.842;2023-01-23T01:03:13;103370.0;;;17.0;44.5
72162;BME280;66366;51.646;5.842;2023-01-23T01:08:13;103370.0;;;17.0;44.5
72162;BME280;66366;51.646;5.842;2023-01-23T01:13:13;103360.0;;;17.0;44.5
72162;BME280;66366;51.646;5.842;2023-01-23T01:18:13;103360.0;;;17.0;44.5
72162;BME280;66366;51.646;5.842;2023-01-23T01:23:13;103370.0;;;17.0;44.5
72162;BME280;66366;51.646;5.842;2023-01-23T01:28:13;103370.0;;;17.0;44.5
72162;BME280;66366;51.646;5.842;2023-01-23T01:33:13;103370.0;;;17.0;44.5
72162;BME280;66366;51.646;5.842;2023-01-23T01:38:13;103360.0;;;17.0;44.5
72162;BME280;66366;51.646;5.842;2023-01-23T01:43:17;103380.0;;;17.0;44.5
72162;BME280;66366;51.646;5.842;2023-01-23T01:48:13;103390.0;;;17.0;44.5
72162;BME280;66366;51.646;5.842;2023-01-23T01:53:13;103380.0;;;17.0;44.5
72162;BME280;66366;51.646;5.842;2023-01-23T01:58:13;103390.0;;;17.0;44.5
72162;BME280;66366;51.646;5.842;2023-01-23T02:03:14;103380.0;;;17.0;44.5
72162;BME280;66366;51.646;5.842;2023-01-23T02:08:22;103370.0;;;17.0;44.5
72162;BME280;66366;51.646;5.842;2023-01-23T02:13:23;103390.0;;;17.0;44.5
72162;BME280;66366;51.646;5.842;2023-01-23T02:18:13;103380.0;;;17.0;44.5
72162;BME280;66366;51.646;5.842;2023-01-23T02:23:34;103390.0;;;17.0;44.5
72162;BME280;66366;51.646;5.842;2023-01-23T02:28:14;103370.0;;;17.0;44.5
72162;BME280;66366;51.646;5.842;2023-01-23T02:38:13;103380.0;;;17.0;44.5
72162;BME280;66366;51.646;5.842;2023-01-23T02:43:16;103380.0;;;17.0;44.5
72162;BME280;66366;51.646;5.842;2023-01-23T02:48:13;103370.0;;;17.0;44.5
72162;BME280;66366;51.646;5.842;2023-01-23T02:53:13;103360.0;;;17.0;44.5
72162;BME280;66366;51.646;5.842;2023-01-23T02:58:13;103370.0;;;17.0;44.5
72162;BME280;66366;51.646;5.842;2023-01-23T03:03:13;103370.0;;;17.0;44.5
72162;BME280;66366;51.646;5.842;2023-01-23T03:08:13;103370.0;;;17.0;44.5
72162;BME280;66366;51.646;5.842;2023-01-23T03:13:13;103380.0;;;17.0;44.5
72162;BME280;66366;51.646;5.842;2023-01-23T03:18:13;103370.0;;;17.0;44.5
72162;BME280;66366;51.646;5.842;2023-01-23T03:23:13;103390.0;;;17.0;44.5
72162;BME280;66366;51.646;5.842;2023-01-23T03:28:13;103380.0;;;17.1;44.5
72162;BME280;66366;51.646;5.842;2023-01-23T03:33:13;103390.0;;;17.1;44.5
72162;BME280;66366;51.646;5.842;2023-01-23T03:38:13;103390.0;;;17.1;44.0
72162;BME280;66366;51.646;5.842;2023-01-23T03:43:13;103380.0;;;17.1;44.0
72162;BME280;66366;51.646;5.842;2023-01-23T03:48:13;103390.0;;;17.1;44.0
72162;BME280;66366;51.646;5.842;2023-01-23T03:53:13;103380.0;;;17.1;44.0
72162;BME280;66366;51.646;5.842;2023-01-23T03:58:13;103390.0;;;17.1;44.0
72162;BME280;66366;51.646;5.842;2023-01-23T04:03:13;103390.0;;;17.1;44.0
72162;BME280;66366;51.646;5.842;2023-01-23T04:08:13;103390.0;;;17.1;44.0
72162;BME280;66366;51.646;5.842;2023-01-23T04:13:13;103390.0;;;17.2;44.0
72162;BME280;66366;51.646;5.842;2023-01-23T04:18:13;103390.0;;;17.2;44.0
72162;BME280;66366;51.646;5.842;2023-01-23T04:23:13;103390.0;;;17.2;44.0
72162;BME280;66366;51.646;5.842;2023-01-23T04:28:14;103390.0;;;17.1;44.0
72162;BME280;66366;51.646;5.842;2023-01-23T04:33:13;103400.0;;;17.2;44.0
72162;BME280;66366;51.646;5.842;2023-01-23T04:38:13;103400.0;;;17.2;44.0
72162;BME280;66366;51.646;5.842;2023-01-23T04:43:13;103400.0;;;17.2;44.0
72162;BME280;66366;51.646;5.842;2023-01-23T04:48:13;103390.0;;;17.2;44.0
72162;BME280;66366;51.646;5.842;2023-01-23T04:53:13;103400.0;;;17.2;44.0
72162;BME280;66366;51.646;5.842;2023-01-23T04:58:14;103400.0;;;17.2;44.0
72162;BME280;66366;51.646;5.842;2023-01-23T05:03:14;103400.0;;;17.2;44.0
72162;BME280;66366;51.646;5.842;2023-01-23T05:08:13;103410.0;;;17.2;44.0
72162;BME280;66366;51.646;5.842;2023-01-23T05:13:13;103410.0;;;17.2;44.0
72162;BME280;66366;51.646;5.842;2023-01-23T05:18:13;103420.0;;;17.2;44.0
72162;BME280;66366;51.646;5.842;2023-01-23T05:23:14;103400.0;;;17.2;44.0
72162;BME280;66366;51.646;5.842;2023-01-23T05:28:13;103410.0;;;17.2;44.0
72162;BME280;66366;51.646;5.842;2023-01-23T05:33:13;103410.0;;;17.2;44.0
72162;BME280;66366;51.646;5.842;2023-01-23T05:38:13;103420.0;;;17.2;44.0
72162;BME280;66366;51.646;5.842;2023-01-23T05:43:14;103430.0;;;17.2;44.0
72162;BME280;66366;51.646;5.842;2023-01-23T05:48:14;103430.0;;;17.2;44.0
72162;BME280;66366;51.646;5.842;2023-01-23T05:53:13;103430.0;;;17.2;44.0
72162;BME280;66366;51.646;5.842;2023-01-23T05:58:13;103430.0;;;17.2;44.0
72162;BME280;66366;51.646;5.842;2023-01-23T06:03:14;103430.0;;;17.2;44.0
72162;BME280;66366;51.646;5.842;2023-01-23T06:08:14;103440.0;;;17.2;44.0
72162;BME280;66366;51.646;5.842;2023-01-23T06:13:13;103450.0;;;17.2;44.0
72162;BME280;66366;51.646;5.842;2023-01-23T06:18:13;103460.0;;;17.2;44.0
72162;BME280;66366;51.646;5.842;2023-01-23T06:23:14;103460.0;;;17.2;44.0
72162;BME280;66366;51.646;5.842;2023-01-23T06:28:13;103450.0;;;17.2;44.0
72162;BME280;66366;51.646;5.842;2023-01-23T06:33:14;103470.0;;;17.2;44.0
72162;BME280;66366;51.646;5.842;2023-01-23T06:38:14;103460.0;;;17.3;44.0
72162;BME280;66366;51.646;5.842;2023-01-23T06:43:14;103460.0;;;17.2;44.0
72162;BME280;66366;51.646;5.842;2023-01-23T06:48:14;103450.0;;;17.2;44.0
72162;BME280;66366;51.646;5.842;2023-01-23T06:53:14;103470.0;;;17.2;44.0
72162;BME280;66366;51.646;5.842;2023-01-23T06:58:14;103470.0;;;17.3;44.0
72162;BME280;66366;51.646;5.842;2023-01-23T07:03:14;103480.0;;;17.3;44.0
72162;BME280;66366;51.646;5.842;2023-01-23T07:08:14;103480.0;;;17.3;44.0
72162;BME280;66366;51.646;5.842;2023-01-23T07:13:14;103480.0;;;17.3;44.0
72162;BME280;66366;51.646;5.842;2023-01-23T07:18:14;103480.0;;;17.2;44.0
72162;BME280;66366;51.646;5.842;2023-01-23T07:23:14;103480.0;;;17.2;44.0
72162;BME280;66366;51.646;5.842;2023-01-23T07:28:14;103500.0;;;17.3;44.0
72162;BME280;66366;51.646;5.842;2023-01-23T07:33:14;103500.0;;;17.3;44.0
72162;BME280;66366;51.646;5.842;2023-01-23T07:38:14;103500.0;;;17.3;44.0
72162;BME280;66366;51.646;5.842;2023-01-23T07:43:14;103510.0;;;17.3;44.0
72162;BME280;66366;51.646;5.842;2023-01-23T07:48:14;103520.0;;;17.3;44.0
72162;BME280;66366;51.646;5.842;2023-01-23T07:53:14;103520.0;;;17.3;44.0
72162;BME280;66366;51.646;5.842;2023-01-23T07:58:14;103530.0;;;17.3;44.0
72162;BME280;66366;51.646;5.842;2023-01-23T08:03:14;103530.0;;;17.3;44.0
72162;BME280;66366;51.646;5.842;2023-01-23T08:08:14;103520.0;;;17.3;44.0
72162;BME280;66366;51.646;5.842;2023-01-23T08:13:14;103530.0;;;17.3;44.0
72162;BME280;66366;51.646;5.842;2023-01-23T08:18:14;103540.0;;;17.3;44.0
72162;BME280;66366;51.646;5.842;2023-01-23T08:23:14;103540.0;;;17.3;44.0
72162;BME280;66366;51.646;5.842;2023-01-23T08:28:14;103540.0;;;17.2;44.0
72162;BME280;66366;51.646;5.842;2023-01-23T08:33:15;103550.0;;;17.2;44.0
72162;BME280;66366;51.646;5.842;2023-01-23T08:38:14;103550.0;;;17.2;44.0
72162;BME280;66366;51.646;5.842;2023-01-23T08:43:17;103560.0;;;17.2;44.0
72162;BME280;66366;51.646;5.842;2023-01-23T08:48:14;103560.0;;;17.2;44.0
72162;BME280;66366;51.646;5.842;2023-01-23T08:53:15;103560.0;;;17.2;44.0
72162;BME280;66366;51.646;5.842;2023-01-23T08:58:14;103570.0;;;17.2;44.0
72162;BME280;66366;51.646;5.842;2023-01-23T09:03:14;103570.0;;;17.2;44.5
72162;BME280;66366;51.646;5.842;2023-01-23T09:08:14;103560.0;;;17.2;44.5
72162;BME280;66366;51.646;5.842;2023-01-23T09:13:14;103560.0;;;17.2;44.0
72162;BME280;66366;51.646;5.842;2023-01-23T09:18:14;103570.0;;;17.2;44.0
72162;BME280;66366;51.646;5.842;2023-01-23T09:23:14;103570.0;;;17.2;44.0
72162;BME280;66366;51.646;5.842;2023-01-23T09:28:14;103560.0;;;17.2;44.0
72162;BME280;66366;51.646;5.842;2023-01-23T09:33:14;103560.0;;;17.2;44.5
72162;BME280;66366;51.646;5.842;2023-01-23T09:38:14;103550.0;;;17.2;44.5
72162;BME280;66366;51.646;5.842;2023-01-23T09:43:17;103560.0;;;17.2;44.5
72162;BME280;66366;51.646;5.842;2023-01-23T09:48:28;103560.0;;;17.2;44.5
72162;BME280;66366;51.646;5.842;2023-01-23T09:53:27;103570.0;;;17.2;44.0
72162;BME280;66366;51.646;5.842;2023-01-23T09:58:22;103570.0;;;17.2;44.0
72162;BME280;66366;51.646;5.842;2023-01-23T10:03:15;103590.0;;;17.2;44.0
72162;BME280;66366;51.646;5.842;2023-01-23T10:09:34;103580.0;;;17.2;44.0
72162;BME280;66366;51.646;5.842;2023-01-23T10:15:06;103580.0;;;17.2;44.5
72162;BME280;66366;51.646;5.842;2023-01-23T10:20:50;103590.0;;;17.2;44.5
72162;BME280;66366;51.646;5.842;2023-01-23T10:25:34;103590.0;;;17.2;44.5
72162;BME280;66366;51.646;5.842;2023-01-23T10:28:31;103600.0;;;17.2;44.5
72162;BME280;66366;51.646;5.842;2023-01-23T10:33:16;103590.0;;;17.2;44.0
72162;BME280;66366;51.646;5.842;2023-01-23T10:38:26;103580.0;;;17.2;44.0
72162;BME280;66366;51.646;5.842;2023-01-23T10:43:16;103590.0;;;17.2;44.0
72162;BME280;66366;51.646;5.842;2023-01-23T10:48:26;103590.0;;;17.2;44.0
72162;BME280;66366;51.646;5.842;2023-01-23T10:53:20;103580.0;;;17.2;44.5
72162;BME280;66366;51.646;5.842;2023-01-23T10:58:31;103580.0;;;17.2;44.5
72162;BME280;66366;51.646;5.842;2023-01-23T11:03:34;103590.0;;;17.2;44.0
72162;BME280;66366;51.646;5.842;2023-01-23T11:08:26;103580.0;;;17.2;44.5
72162;BME280;66366;51.646;5.842;2023-01-23T11:13:29;103590.0;;;17.2;44.5
72162;BME280;66366;51.646;5.842;2023-01-23T11:18:30;103590.0;;;17.2;44.0
72162;BME280;66366;51.646;5.842;2023-01-23T11:23:16;103580.0;;;17.2;44.0
72162;BME280;66366;51.646;5.842;2023-01-23T11:28:27;103580.0;;;17.2;44.0
72162;BME280;66366;51.646;5.842;2023-01-23T11:33:32;103580.0;;;17.2;44.0
72162;BME280;66366;51.646;5.842;2023-01-23T11:38:16;103580.0;;;17.2;44.5
72162;BME280;66366;51.646;5.842;2023-01-23T11:43:15;103570.0;;;17.2;44.5
72162;BME280;66366;51.646;5.842;2023-01-23T11:49:34;103580.0;;;17.2;44.5
72162;BME280;66366;51.646;5.842;2023-01-23T11:55:15;103580.0;;;17.2;44.5
72162;BME280;66366;51.646;5.842;2023-01-23T12:01:19;103580.0;;;17.2;44.5
72162;BME280;66366;51.646;5.842;2023-01-23T12:07:25;103580.0;;;17.2;44.5
72162;BME280;66366;51.646;5.842;2023-01-23T12:11:13;103590.0;;;17.2;44.0
72162;BME280;66366;51.646;5.842;2023-01-23T12:16:35;103580.0;;;17.2;44.0
72162;BME280;66366;51.646;5.842;2023-01-23T12:22:35;103580.0;;;17.2;44.0
72162;BME280;66366;51.646;5.842;2023-01-23T12:26:59;103580.0;;;17.2;44.5
72162;BME280;66366;51.646;5.842;2023-01-23T12:33:01;103580.0;;;17.2;44.5
72162;BME280;66366;51.646;5.842;2023-01-23T12:38:47;103570.0;;;17.2;44.5
72162;BME280;66366;51.646;5.842;2023-01-23T12:43:00;103570.0;;;17.2;44.5
72162;BME280;66366;51.646;5.842;2023-01-23T12:45:59;103560.0;;;17.2;44.5
72162;BME280;66366;51.646;5.842;2023-01-23T12:49:39;103560.0;;;17.2;44.5
72162;BME280;66366;51.646;5.842;2023-01-23T12:53:19;103560.0;;;17.2;44.0
72162;BME280;66366;51.646;5.842;2023-01-23T12:58:17;103560.0;;;17.2;44.0
72162;BME280;66366;51.646;5.842;2023-01-23T13:03:57;103570.0;;;17.2;44.0
72162;BME280;66366;51.646;5.842;2023-01-23T13:09:11;103570.0;;;17.2;44.0
72162;BME280;66366;51.646;5.842;2023-01-23T13:13:16;103570.0;;;17.2;44.5
72162;BME280;66366;51.646;5.842;2023-01-23T13:18:24;103570.0;;;17.2;44.5
72162;BME280;66366;51.646;5.842;2023-01-23T13:23:24;103570.0;;;17.2;44.5
72162;BME280;66366;51.646;5.842;2023-01-23T13:28:44;103570.0;;;17.2;44.5
72162;BME280;66366;51.646;5.842;2023-01-23T13:33:51;103570.0;;;17.2;44.5
72162;BME280;66366;51.646;5.842;2023-01-23T13:38:32;103580.0;;;17.2;44.5
72162;BME280;66366;51.646;5.842;2023-01-23T13:43:42;103580.0;;;17.2;44.5
72162;BME280;66366;51.646;5.842;2023-01-23T13:49:12;103590.0;;;17.2;44.5
72162;BME280;66366;51.646;5.842;2023-01-23T13:53:26;103600.0;;;17.2;44.5
72162;BME280;66366;51.646;5.842;2023-01-23T13:58:16;103580.0;;;17.2;44.5
72162;BME280;66366;51.646;5.842;2023-01-23T14:08:19;103580.0;;;17.2;44.5
72162;BME280;66366;51.646;5.842;2023-01-23T14:13:16;103590.0;;;17.2;44.5
72162;BME280;66366;51.646;5.842;2023-01-23T14:18:25;103600.0;;;17.2;44.5
72162;BME280;66366;51.646;5.842;2023-01-23T14:23:34;103600.0;;;17.2;44.5
72162;BME280;66366;51.646;5.842;2023-01-23T14:28:17;103590.0;;;17.2;44.5
72162;BME280;66366;51.646;5.842;2023-01-23T14:33:16;103600.0;;;17.2;44.5
72162;BME280;66366;51.646;5.842;2023-01-23T14:38:19;103590.0;;;17.2;44.5
72162;BME280;66366;51.646;5.842;2023-01-23T14:43:22;103590.0;;;17.2;44.5
72162;BME280;66366;51.646;5.842;2023-01-23T14:48:16;103580.0;;;17.2;44.5
72162;BME280;66366;51.646;5.842;2023-01-23T14:53:16;103580.0;;;17.2;44.5
72162;BME280;66366;51.646;5.842;2023-01-23T14:58:20;103560.0;;;17.2;44.5
72162;BME280;66366;51.646;5.842;2023-01-23T15:03:33;103550.0;;;17.2;44.5
72162;BME280;66366;51.646;5.842;2023-01-23T15:08:23;103560.0;;;17.2;44.5
72162;BME280;66366;51.646;5.842;2023-01-23T15:13:21;103540.0;;;17.2;44.5
72162;BME280;66366;51.646;5.842;2023-01-23T15:18:24;103530.0;;;17.2;44.5
72162;BME280;66366;51.646;5.842;2023-01-23T15:23:31;103520.0;;;17.2;44.5
72162;BME280;66366;51.646;5.842;2023-01-23T15:28:38;103520.0;;;17.2;44.5
72162;BME280;66366;51.646;5.842;2023-01-23T15:33:30;103520.0;;;17.2;44.5
72162;BME280;66366;51.646;5.842;2023-01-23T15:38:16;103530.0;;;17.2;44.5
72162;BME280;66366;51.646;5.842;2023-01-23T15:43:18;103530.0;;;17.2;44.5
72162;BME280;66366;51.646;5.842;2023-01-23T15:48:15;103540.0;;;17.2;44.5
72162;BME280;66366;51.646;5.842;2023-01-23T15:53:15;103550.0;;;17.2;44.5
72162;BME280;66366;51.646;5.842;2023-01-23T15:58:15;103550.0;;;17.2;44.5
72162;BME280;66366;51.646;5.842;2023-01-23T16:03:15;103540.0;;;17.2;44.5
72162;BME280;66366;51.646;5.842;2023-01-23T16:08:20;103560.0;;;17.2;44.5
72162;BME280;66366;51.646;5.842;2023-01-23T16:13:15;103570.0;;;17.2;44.5
72162;BME280;66366;51.646;5.842;2023-01-23T16:18:15;103570.0;;;17.2;44.5
72162;BME280;66366;51.646;5.842;2023-01-23T16:23:17;103570.0;;;17.2;44.5
72162;BME280;66366;51.646;5.842;2023-01-23T16:28:16;103570.0;;;17.2;44.5
72162;BME280;66366;51.646;5.842;2023-01-23T16:33:16;103570.0;;;17.2;44.5
72162;BME280;66366;51.646;5.842;2023-01-23T16:38:19;103570.0;;;17.2;44.5
72162;BME280;66366;51.646;5.842;2023-01-23T16:43:15;103570.0;;;17.2;44.5
72162;BME280;66366;51.646;5.842;2023-01-23T16:48:15;103570.0;;;17.2;44.5
72162;BME280;66366;51.646;5.842;2023-01-23T16:53:20;103570.0;;;17.2;44.5
72162;BME280;66366;51.646;5.842;2023-01-23T16:58:19;103580.0;;;17.2;44.5
72162;BME280;66366;51.646;5.842;2023-01-23T17:03:20;103580.0;;;17.3;44.5
72162;BME280;66366;51.646;5.842;2023-01-23T17:08:19;103580.0;;;17.2;44.5
72162;BME280;66366;51.646;5.842;2023-01-23T17:13:17;103590.0;;;17.2;44.5
72162;BME280;66366;51.646;5.842;2023-01-23T17:18:24;103590.0;;;17.2;44.5
72162;BME280;66366;51.646;5.842;2023-01-23T17:23:15;103590.0;;;17.2;44.5
72162;BME280;66366;51.646;5.842;2023-01-23T17:28:16;103590.0;;;17.2;44.5
72162;BME280;66366;51.646;5.842;2023-01-23T17:33:20;103590.0;;;17.2;44.5
72162;BME280;66366;51.646;5.842;2023-01-23T17:38:17;103600.0;;;17.2;44.5
72162;BME280;66366;51.646;5.842;2023-01-23T17:43:20;103590.0;;;17.2;44.5
72162;BME280;66366;51.646;5.842;2023-01-23T17:48:23;103600.0;;;17.2;44.5
72162;BME280;66366;51.646;5.842;2023-01-23T17:53:16;103600.0;;;17.2;44.5
72162;BME280;66366;51.646;5.842;2023-01-23T17:58:16;103600.0;;;17.2;44.5
72162;BME280;66366;51.646;5.842;2023-01-23T18:03:18;103610.0;;;17.2;44.5
72162;BME280;66366;51.646;5.842;2023-01-23T18:08:17;103610.0;;;17.3;44.5
72162;BME280;66366;51.646;5.842;2023-01-23T18:14:02;103610.0;;;17.3;44.5
72162;BME280;66366;51.646;5.842;2023-01-23T18:18:36;103620.0;;;17.2;44.5
72162;BME280;66366;51.646;5.842;2023-01-23T18:23:15;103620.0;;;17.2;44.5
72162;BME280;66366;51.646;5.842;2023-01-23T18:28:18;103620.0;;;17.2;44.5
72162;BME280;66366;51.646;5.842;2023-01-23T18:34:29;103620.0;;;17.2;44.5
72162;BME280;66366;51.646;5.842;2023-01-23T18:39:35;103630.0;;;17.2;44.5
72162;BME280;66366;51.646;5.842;2023-01-23T18:43:36;103620.0;;;17.2;44.5
72162;BME280;66366;51.646;5.842;2023-01-23T18:48:16;103620.0;;;17.2;44.5
72162;BME280;66366;51.646;5.842;2023-01-23T18:54:18;103620.0;;;17.2;44.5
72162;BME280;66366;51.646;5.842;2023-01-23T18:59:44;103630.0;;;17.3;44.5
72162;BME280;66366;51.646;5.842;2023-01-23T19:03:43;103640.0;;;17.3;44.5
72162;BME280;66366;51.646;5.842;2023-01-23T19:08:26;103630.0;;;17.3;44.5
72162;BME280;66366;51.646;5.842;2023-01-23T19:13:36;103620.0;;;17.3;44.5
72162;BME280;66366;51.646;5.842;2023-01-23T19:18:45;103640.0;;;17.3;44.5
72162;BME280;66366;51.646;5.842;2023-01-23T19:23:46;103640.0;;;17.3;44.5
72162;BME280;66366;51.646;5.842;2023-01-23T19:28:16;103640.0;;;17.3;44.5
72162;BME280;66366;51.646;5.842;2023-01-23T19:33:17;103640.0;;;17.3;44.5
72162;BME280;66366;51.646;5.842;2023-01-23T19:38:16;103640.0;;;17.3;44.5
72162;BME280;66366;51.646;5.842;2023-01-23T19:43:16;103650.0;;;17.3;44.5
72162;BME280;66366;51.646;5.842;2023-01-23T19:48:16;103640.0;;;17.2;44.5
72162;BME280;66366;51.646;5.842;2023-01-23T19:53:16;103640.0;;;17.2;44.5
72162;BME280;66366;51.646;5.842;2023-01-23T19:58:16;103640.0;;;17.3;44.5
72162;BME280;66366;51.646;5.842;2023-01-23T20:03:16;103640.0;;;17.3;44.5
72162;BME280;66366;51.646;5.842;2023-01-23T20:08:16;103650.0;;;17.3;44.5
72162;BME280;66366;51.646;5.842;2023-01-23T20:13:16;103650.0;;;17.3;44.5
72162;BME280;66366;51.646;5.842;2023-01-23T20:18:16;103660.0;;;17.3;44.5
72162;BME280;66366;51.646;5.842;2023-01-23T20:23:16;103660.0;;;17.3;44.5
72162;BME280;66366;51.646;5.842;2023-01-23T20:28:16;103650.0;;;17.3;44.5
72162;BME280;66366;51.646;5.842;2023-01-23T20:33:16;103660.0;;;17.3;44.5
72162;BME280;66366;51.646;5.842;2023-01-23T20:38:16;103660.0;;;17.3;44.5
72162;BME280;66366;51.646;5.842;2023-01-23T20:43:16;103670.0;;;17.3;44.5
72162;BME280;66366;51.646;5.842;2023-01-23T20:48:16;103660.0;;;17.3;44.5
72162;BME280;66366;51.646;5.842;2023-01-23T20:53:16;103670.0;;;17.3;45.0
72162;BME280;66366;51.646;5.842;2023-01-23T20:58:16;103670.0;;;17.2;45.0
72162;BME280;66366;51.646;5.842;2023-01-23T21:03:16;103660.0;;;17.3;45.0
72162;BME280;66366;51.646;5.842;2023-01-23T21:08:16;103660.0;;;17.2;45.0
72162;BME280;66366;51.646;5.842;2023-01-23T21:13:16;103660.0;;;17.2;45.0
72162;BME280;66366;51.646;5.842;2023-01-23T21:18:16;103650.0;;;17.2;45.0
72162;BME280;66366;51.646;5.842;2023-01-23T21:23:16;103660.0;;;17.2;45.0
72162;BME280;66366;51.646;5.842;2023-01-23T21:28:16;103650.0;;;17.3;44.5
72162;BME280;66366;51.646;5.842;2023-01-23T21:33:16;103660.0;;;17.3;45.0
72162;BME280;66366;51.646;5.842;2023-01-23T21:38:16;103660.0;;;17.3;45.0
72162;BME280;66366;51.646;5.842;2023-01-23T21:43:16;103660.0;;;17.3;45.0
72162;BME280;66366;51.646;5.842;2023-01-23T21:48:16;103660.0;;;17.3;45.0
72162;BME280;66366;51.646;5.842;2023-01-23T21:53:16;103670.0;;;17.3;45.0
72162;BME280;66366;51.646;5.842;2023-01-23T21:58:16;103670.0;;;17.3;45.0
72162;BME280;66366;51.646;5.842;2023-01-23T22:03:16;103680.0;;;17.3;45.0
72162;BME280;66366;51.646;5.842;2023-01-23T22:08:16;103670.0;;;17.3;45.0
72162;BME280;66366;51.646;5.842;2023-01-23T22:13:16;103670.0;;;17.3;45.0
72162;BME280;66366;51.646;5.842;2023-01-23T22:18:16;103670.0;;;17.3;45.0
72162;BME280;66366;51.646;5.842;2023-01-23T22:28:16;103670.0;;;17.3;45.0
72162;BME280;66366;51.646;5.842;2023-01-23T22:33:16;103670.0;;;17.3;44.5
72162;BME280;66366;51.646;5.842;2023-01-23T22:38:16;103660.0;;;17.3;45.0
72162;BME280;66366;51.646;5.842;2023-01-23T22:43:16;103670.0;;;17.3;45.0
72162;BME280;66366;51.646;5.842;2023-01-23T22:48:16;103680.0;;;17.3;45.0
72162;BME280;66366;51.646;5.842;2023-01-23T22:53:16;103680.0;;;17.3;45.0
72162;BME280;66366;51.646;5.842;2023-01-23T22:58:16;103670.0;;;17.3;45.0
72162;BME280;66366;51.646;5.842;2023-01-23T23:03:16;103690.0;;;17.3;45.0
72162;BME280;66366;51.646;5.842;2023-01-23T23:08:16;103680.0;;;17.3;45.0
72162;BME280;66366;51.646;5.842;2023-01-23T23:13:16;103690.0;;;17.3;45.0
72162;BME280;66366;51.646;5.842;2023-01-23T23:18:16;103680.0;;;17.3;45.0
72162;BME280;66366;51.646;5.842;2023-01-23T23:23:17;103690.0;;;17.3;45.0
72162;BME280;66366;51.646;5.842;2023-01-23T23:28:16;103690.0;;;17.3;45.0
72162;BME280;66366;51.646;5.842;2023-01-23T23:33:16;103680.0;;;17.3;45.0
72162;BME280;66366;51.646;5.842;2023-01-23T23:38:16;103680.0;;;17.3;45.0
72162;BME280;66366;51.646;5.842;2023-01-23T23:43:16;103680.0;;;17.3;45.0
72162;BME280;66366;51.646;5.842;2023-01-23T23:53:17;103680.0;;;17.3;45.0
72162;BME280;66366;51.646;5.842;2023-01-23T23:58:17;103680.0;;;17.3;45.0
